createdAt,value
2023-04-06T00:01:53.843Z,16.90
2023-04-06T00:04:22.176Z,16.90
2023-04-06T00:06:50.113Z,16.90
2023-04-06T00:09:17.958Z,16.90
2023-04-06T00:11:46.147Z,16.90
2023-04-06T00:14:14.773Z,16.90
2023-04-06T00:16:43.126Z,16.90
2023-04-06T00:19:11.452Z,16.90
2023-04-06T00:21:39.582Z,16.90
2023-04-06T00:24:07.512Z,16.90
2023-04-06T00:26:35.761Z,16.90
2023-04-06T00:29:03.685Z,16.90
2023-04-06T00:31:31.645Z,16.90
2023-04-06T00:34:00.428Z,16.90
2023-04-06T00:36:28.360Z,16.90
2023-04-06T00:38:56.421Z,16.90
2023-04-06T00:41:24.308Z,16.90
2023-04-06T00:43:52.280Z,16.90
2023-04-06T00:46:20.889Z,16.90
2023-04-06T00:48:49.048Z,16.90
2023-04-06T00:51:17.177Z,16.90
2023-04-06T00:53:45.077Z,16.90
2023-04-06T00:56:13.147Z,16.80
2023-04-06T00:58:41.764Z,16.90
2023-04-06T01:01:09.908Z,16.80
2023-04-06T01:03:38.465Z,16.80
2023-04-06T01:06:06.469Z,16.80
2023-04-06T01:08:35.021Z,16.80
2023-04-06T01:11:03.119Z,16.80
2023-04-06T01:13:31.031Z,16.80
2023-04-06T01:15:59.101Z,16.80
2023-04-06T01:18:27.343Z,16.80
2023-04-06T01:20:55.290Z,16.80
2023-04-06T01:23:23.214Z,16.80
2023-04-06T01:25:51.182Z,16.80
2023-04-06T01:28:19.083Z,16.70
2023-04-06T01:30:47.433Z,16.80
2023-04-06T01:33:15.392Z,16.80
2023-04-06T01:35:43.342Z,16.70
2023-04-06T01:38:11.277Z,16.70
2023-04-06T01:40:39.293Z,16.70
2023-04-06T01:43:07.765Z,16.70
2023-04-06T01:45:35.712Z,16.70
2023-04-06T01:48:03.789Z,16.70
2023-04-06T01:50:31.683Z,16.70
2023-04-06T01:52:59.586Z,16.70
2023-04-06T01:55:27.555Z,16.60
2023-04-06T01:57:55.446Z,16.60
2023-04-06T02:00:23.444Z,16.60
2023-04-06T02:02:51.407Z,16.60
2023-04-06T02:05:19.574Z,16.60
2023-04-06T02:07:47.453Z,16.60
2023-04-06T02:10:15.611Z,16.70
2023-04-06T02:12:43.748Z,16.60
2023-04-06T02:15:11.629Z,16.60
2023-04-06T02:17:39.592Z,16.60
2023-04-06T02:20:07.485Z,16.60
2023-04-06T02:22:35.444Z,16.60
2023-04-06T02:25:04.966Z,16.60
2023-04-06T02:27:33.283Z,16.60
2023-04-06T02:30:01.205Z,16.60
2023-04-06T02:32:29.091Z,16.60
2023-04-06T02:34:56.995Z,16.60
2023-04-06T02:37:25.556Z,16.60
2023-04-06T02:39:53.585Z,16.60
2023-04-06T02:42:22.175Z,16.60
2023-04-06T02:44:50.135Z,16.60
2023-04-06T02:47:18.010Z,16.60
2023-04-06T02:49:48.496Z,16.60
2023-04-06T02:52:16.615Z,16.50
2023-04-06T02:54:44.542Z,16.50
2023-04-06T02:57:12.447Z,16.50
2023-04-06T02:59:40.561Z,16.50
2023-04-06T03:02:08.565Z,16.50
2023-04-06T03:04:36.711Z,16.50
2023-04-06T03:07:04.630Z,16.50
2023-04-06T03:09:32.566Z,16.50
2023-04-06T03:12:01.051Z,16.50
2023-04-06T03:14:28.907Z,16.50
2023-04-06T03:16:56.775Z,16.50
2023-04-06T03:19:24.695Z,16.50
2023-04-06T03:21:52.709Z,16.50
2023-04-06T03:24:20.676Z,16.50
2023-04-06T03:26:48.595Z,16.50
2023-04-06T03:29:16.512Z,16.50
2023-04-06T03:31:44.694Z,16.50
2023-04-06T03:34:12.662Z,16.50
2023-04-06T03:36:40.591Z,16.50
2023-04-06T03:39:08.843Z,16.50
2023-04-06T03:41:37.005Z,16.50
2023-04-06T03:44:04.945Z,16.50
2023-04-06T03:46:32.869Z,16.50
2023-04-06T03:49:00.962Z,16.50
2023-04-06T03:51:28.837Z,16.50
2023-04-06T03:53:56.733Z,16.50
2023-04-06T03:56:24.644Z,16.40
2023-04-06T03:58:52.855Z,16.40
2023-04-06T04:01:20.823Z,16.50
2023-04-06T04:03:51.469Z,16.50
2023-04-06T04:06:19.810Z,16.40
2023-04-06T04:08:47.698Z,16.40
2023-04-06T04:11:17.072Z,16.40
2023-04-06T04:13:45.099Z,16.40
2023-04-06T04:16:13.041Z,16.40
2023-04-06T04:18:41.311Z,16.40
2023-04-06T04:21:09.223Z,16.40
2023-04-06T04:23:37.487Z,16.40
2023-04-06T04:26:05.656Z,16.40
2023-04-06T04:28:33.650Z,16.40
2023-04-06T04:31:01.700Z,16.40
2023-04-06T04:33:29.637Z,16.40
2023-04-06T04:35:57.621Z,16.40
2023-04-06T04:38:25.570Z,16.40
2023-04-06T04:40:53.439Z,16.40
2023-04-06T04:43:21.343Z,16.40
2023-04-06T04:45:49.213Z,16.40
2023-04-06T04:48:17.492Z,16.40
2023-04-06T04:50:45.381Z,16.40
2023-04-06T04:53:13.410Z,16.40
2023-04-06T04:55:41.921Z,16.40
2023-04-06T04:58:12.136Z,16.40
2023-04-06T05:00:40.094Z,16.40
2023-04-06T05:03:08.001Z,16.40
2023-04-06T05:05:36.267Z,16.40
2023-04-06T05:08:04.130Z,16.40
2023-04-06T05:10:32.040Z,16.40
2023-04-06T05:12:59.886Z,16.40
2023-04-06T05:15:27.821Z,16.40
2023-04-06T05:17:56.056Z,16.40
2023-04-06T05:20:24.097Z,16.40
2023-04-06T05:22:51.980Z,16.40
2023-04-06T05:25:19.849Z,16.40
2023-04-06T05:27:47.720Z,16.40
2023-04-06T05:30:18.654Z,16.40
2023-04-06T05:32:46.798Z,16.40
2023-04-06T05:35:14.749Z,16.50
2023-04-06T05:37:42.628Z,16.50
2023-04-06T05:40:10.594Z,16.50
2023-04-06T05:42:39.151Z,16.50
2023-04-06T05:45:07.066Z,16.50
2023-04-06T05:47:34.967Z,16.50
2023-04-06T05:50:02.907Z,16.50
2023-04-06T05:52:30.763Z,16.50
2023-04-06T05:54:58.637Z,16.50
2023-04-06T05:57:26.530Z,16.50
2023-04-06T05:59:54.404Z,16.50
2023-04-06T06:02:22.347Z,16.50
2023-04-06T06:04:50.718Z,16.50
2023-04-06T06:07:18.616Z,16.50
2023-04-06T06:09:46.492Z,16.60
2023-04-06T06:12:14.753Z,16.60
2023-04-06T06:14:42.911Z,16.60
2023-04-06T06:17:10.913Z,16.60
2023-04-06T06:19:38.775Z,16.60
2023-04-06T06:22:07.000Z,16.70
2023-04-06T06:24:34.871Z,16.70
2023-04-06T06:27:02.850Z,16.80
2023-04-06T06:29:30.712Z,16.80
2023-04-06T06:31:58.639Z,16.80
2023-04-06T06:34:26.594Z,16.90
2023-04-06T06:36:56.350Z,16.90
2023-04-06T06:39:24.482Z,16.90
2023-04-06T06:41:52.348Z,17.00
2023-04-06T06:44:20.208Z,17.00
2023-04-06T06:46:48.111Z,17.10
2023-04-06T06:49:16.087Z,17.10
2023-04-06T06:51:44.015Z,17.10
2023-04-06T06:54:12.292Z,17.20
2023-04-06T06:56:40.371Z,17.20
2023-04-06T06:59:08.369Z,17.20
2023-04-06T07:01:37.031Z,17.30
2023-04-06T07:04:05.001Z,17.30
2023-04-06T07:06:32.892Z,17.30
2023-04-06T07:09:00.787Z,17.30
2023-04-06T07:11:28.775Z,17.30
2023-04-06T07:13:56.743Z,17.40
2023-04-06T07:16:24.642Z,17.40
2023-04-06T07:18:52.574Z,17.40
2023-04-06T07:21:20.443Z,17.40
2023-04-06T07:23:49.180Z,17.40
2023-04-06T07:26:17.097Z,17.40
2023-04-06T07:28:44.986Z,17.40
2023-04-06T07:31:12.872Z,17.40
2023-04-06T07:33:41.081Z,17.40
2023-04-06T07:36:08.986Z,17.40
2023-04-06T07:38:36.936Z,17.40
2023-04-06T07:41:05.257Z,17.50
2023-04-06T07:43:33.340Z,17.50
2023-04-06T07:46:02.099Z,17.50
2023-04-06T07:48:30.071Z,17.50
2023-04-06T07:50:57.955Z,17.50
2023-04-06T07:53:25.950Z,17.50
2023-04-06T07:55:53.804Z,17.50
2023-04-06T07:58:21.892Z,17.50
2023-04-06T08:00:49.744Z,17.50
2023-04-06T08:03:18.028Z,17.50
2023-04-06T08:05:46.266Z,17.50
2023-04-06T08:08:14.165Z,17.50
2023-04-06T08:10:42.018Z,17.50
2023-04-06T08:13:10.139Z,17.50
2023-04-06T08:15:38.056Z,17.50
2023-04-06T08:18:06.432Z,17.50
2023-04-06T08:20:34.396Z,17.50
2023-04-06T08:23:02.310Z,17.50
2023-04-06T08:25:30.199Z,17.50
2023-04-06T08:27:58.112Z,17.50
2023-04-06T08:30:26.073Z,17.50
2023-04-06T08:32:54.039Z,17.50
2023-04-06T08:35:21.998Z,17.60
2023-04-06T08:37:49.874Z,17.60
2023-04-06T08:40:17.742Z,17.60
2023-04-06T08:42:45.615Z,17.60
2023-04-06T08:45:13.546Z,17.60
2023-04-06T08:47:41.467Z,17.60
2023-04-06T08:50:09.367Z,17.60
2023-04-06T08:52:37.272Z,17.60
2023-04-06T08:55:05.198Z,17.60
2023-04-06T08:57:33.119Z,17.60
2023-04-06T09:00:00.966Z,17.60
2023-04-06T09:02:28.966Z,17.60
2023-04-06T09:04:56.998Z,17.60
2023-04-06T09:07:25.159Z,17.70
2023-04-06T09:09:53.041Z,17.70
2023-04-06T09:12:20.924Z,17.70
2023-04-06T09:14:48.813Z,17.70
2023-04-06T09:17:16.724Z,17.70
2023-04-06T09:19:44.764Z,17.70
2023-04-06T09:22:12.640Z,17.70
2023-04-06T09:24:40.626Z,17.70
2023-04-06T09:27:08.499Z,17.70
2023-04-06T09:29:37.778Z,17.70
2023-04-06T09:32:05.802Z,17.70
2023-04-06T09:34:33.785Z,17.70
2023-04-06T09:37:02.494Z,17.70
2023-04-06T09:39:30.522Z,17.70
2023-04-06T09:41:58.564Z,17.70
2023-04-06T09:44:27.138Z,17.70
2023-04-06T09:47:00.305Z,17.70
2023-04-06T09:49:29.000Z,17.70
2023-04-06T09:51:56.864Z,17.80
2023-04-06T09:54:24.763Z,17.70
2023-04-06T09:56:52.649Z,17.70
2023-04-06T09:59:20.607Z,17.80
2023-04-06T10:01:48.515Z,17.80
2023-04-06T10:04:16.469Z,17.80
2023-04-06T10:06:44.591Z,17.80
2023-04-06T10:09:13.055Z,17.80
2023-04-06T10:11:41.075Z,17.80
2023-04-06T10:14:09.200Z,17.80
2023-04-06T10:16:37.290Z,17.80
2023-04-06T10:19:05.219Z,17.90
2023-04-06T10:21:33.186Z,17.80
2023-04-06T10:24:01.103Z,17.90
2023-04-06T10:26:29.043Z,17.90
2023-04-06T10:28:56.941Z,17.90
2023-04-06T10:31:24.905Z,17.90
2023-04-06T10:33:52.819Z,17.90
2023-04-06T10:36:20.751Z,17.90
2023-04-06T10:38:48.628Z,17.90
2023-04-06T10:41:17.914Z,17.90
2023-04-06T10:43:47.500Z,17.90
2023-04-06T10:46:19.446Z,17.90
2023-04-06T10:48:47.848Z,17.90
2023-04-06T10:51:15.906Z,17.90
2023-04-06T10:53:43.824Z,17.90
2023-04-06T10:56:12.460Z,17.90
2023-04-06T10:58:40.674Z,17.90
2023-04-06T11:01:08.825Z,17.90
2023-04-06T11:03:36.743Z,17.90
2023-04-06T11:06:04.667Z,17.90
2023-04-06T11:08:32.623Z,17.90
2023-04-06T11:11:00.482Z,17.90
2023-04-06T11:13:28.343Z,17.90
2023-04-06T11:15:56.308Z,17.90
2023-04-06T11:18:24.154Z,17.90
2023-04-06T11:20:52.108Z,17.90
2023-04-06T11:23:20.189Z,17.90
2023-04-06T11:25:48.076Z,17.90
2023-04-06T11:28:16.105Z,17.90
2023-04-06T11:30:43.972Z,17.90
2023-04-06T11:33:11.926Z,17.90
2023-04-06T11:35:39.945Z,17.90
2023-04-06T11:38:07.949Z,17.90
2023-04-06T11:40:36.144Z,17.90
2023-04-06T11:43:04.004Z,17.90
2023-04-06T11:45:31.926Z,17.90
2023-04-06T11:48:00.444Z,17.90
2023-04-06T11:50:28.470Z,17.90
2023-04-06T11:52:56.333Z,17.90
2023-04-06T11:55:24.249Z,17.90
2023-04-06T11:57:52.679Z,17.90
2023-04-06T12:00:20.712Z,17.90
2023-04-06T12:02:48.770Z,17.90
2023-04-06T12:05:16.721Z,17.90
2023-04-06T12:07:44.674Z,17.90
2023-04-06T12:10:12.695Z,17.90
2023-04-06T12:12:40.620Z,17.90
2023-04-06T12:15:08.756Z,17.90
2023-04-06T12:17:36.828Z,17.90
2023-04-06T12:20:13.404Z,17.90
2023-04-06T12:22:45.789Z,17.90
2023-04-06T12:25:14.038Z,17.90
2023-04-06T12:27:41.915Z,17.90
2023-04-06T12:30:09.822Z,17.90
2023-04-06T12:32:37.983Z,17.90
2023-04-06T12:35:06.232Z,17.90
2023-04-06T12:37:34.146Z,17.90
2023-04-06T12:40:02.204Z,17.90
2023-04-06T12:42:30.107Z,17.90
2023-04-06T12:44:58.191Z,17.90
2023-04-06T12:47:27.451Z,17.90
2023-04-06T12:49:55.910Z,17.90
2023-04-06T12:52:23.872Z,17.90
2023-04-06T12:54:52.502Z,17.90
2023-04-06T12:57:21.407Z,17.90
2023-04-06T12:59:49.384Z,17.90
2023-04-06T13:02:17.412Z,17.90
2023-04-06T13:04:45.631Z,17.90
2023-04-06T13:07:13.505Z,17.90
2023-04-06T13:09:41.480Z,17.90
2023-04-06T13:12:09.366Z,17.90
2023-04-06T13:14:37.220Z,17.90
2023-04-06T13:17:05.149Z,17.90
2023-04-06T13:19:33.484Z,17.90
2023-04-06T13:22:01.598Z,17.90
2023-04-06T13:24:29.519Z,17.90
2023-04-06T13:26:58.087Z,17.90
2023-04-06T13:29:27.658Z,17.90
2023-04-06T13:31:55.529Z,17.90
2023-04-06T13:34:23.497Z,17.90
2023-04-06T13:36:51.885Z,17.90
2023-04-06T13:39:19.839Z,17.90
2023-04-06T13:41:48.154Z,17.90
2023-04-06T13:44:16.172Z,17.90
2023-04-06T13:46:44.361Z,18.00
2023-04-06T13:49:12.265Z,18.00
2023-04-06T13:51:40.160Z,18.10
2023-04-06T13:54:07.974Z,18.20
2023-04-06T13:56:35.925Z,18.30
2023-04-06T13:59:03.790Z,18.40
2023-04-06T14:01:31.608Z,18.60
2023-04-06T14:03:59.562Z,18.70
2023-04-06T14:06:31.085Z,18.90
2023-04-06T14:09:00.312Z,19.00
2023-04-06T14:11:28.462Z,19.20
2023-04-06T14:13:58.204Z,19.30
2023-04-06T14:16:26.643Z,19.50
2023-04-06T14:18:54.483Z,19.60
2023-04-06T14:21:22.316Z,19.70
2023-04-06T14:23:50.128Z,19.70
2023-04-06T14:26:18.550Z,19.80
2023-04-06T14:28:46.525Z,19.80
2023-04-06T14:31:14.352Z,19.90
2023-04-06T14:33:42.543Z,19.90
2023-04-06T14:36:10.738Z,19.90
2023-04-06T14:38:38.576Z,19.90
2023-04-06T14:41:06.427Z,19.90
2023-04-06T14:43:34.449Z,19.90
2023-04-06T14:46:02.309Z,19.90
2023-04-06T14:48:30.129Z,19.90
2023-04-06T14:50:57.928Z,19.80
2023-04-06T14:53:25.847Z,19.80
2023-04-06T14:55:53.666Z,19.80
2023-04-06T14:58:21.492Z,19.70
2023-04-06T15:00:49.316Z,19.70
2023-04-06T15:03:17.240Z,19.70
2023-04-06T15:05:45.380Z,19.60
2023-04-06T15:08:14.857Z,19.60
2023-04-06T15:10:42.677Z,19.60
2023-04-06T15:13:10.515Z,19.60
2023-04-06T15:15:38.970Z,19.60
2023-04-06T15:18:06.774Z,19.60
2023-04-06T15:20:34.576Z,19.60
2023-04-06T15:23:02.362Z,19.50
2023-04-06T15:25:30.231Z,19.50
2023-04-06T15:27:59.101Z,19.50
2023-04-06T15:30:30.276Z,19.50
2023-04-06T15:32:58.217Z,19.50
2023-04-06T15:35:26.526Z,19.40
2023-04-06T15:37:54.557Z,19.50
2023-04-06T15:40:22.554Z,19.50
2023-04-06T15:42:50.825Z,19.50
2023-04-06T15:45:18.673Z,19.50
2023-04-06T15:47:46.688Z,19.60
2023-04-06T15:50:14.612Z,19.70
2023-04-06T15:52:42.504Z,19.80
2023-04-06T15:55:10.484Z,19.80
2023-04-06T15:57:38.296Z,19.90
2023-04-06T16:00:06.414Z,19.90
2023-04-06T16:02:34.455Z,19.90
2023-04-06T16:05:03.744Z,19.90
2023-04-06T16:07:31.792Z,19.90
2023-04-06T16:09:59.601Z,19.90
2023-04-06T16:12:29.005Z,19.90
2023-04-06T16:14:56.963Z,19.90
2023-04-06T16:17:24.814Z,19.80
2023-04-06T16:19:52.760Z,19.80
2023-04-06T16:22:20.902Z,19.80
2023-04-06T16:24:48.791Z,19.80
2023-04-06T16:27:16.735Z,19.70
2023-04-06T16:29:44.869Z,19.70
2023-04-06T16:32:13.416Z,19.70
2023-04-06T16:34:41.328Z,19.70
2023-04-06T16:37:09.267Z,19.70
2023-04-06T16:39:37.358Z,19.70
2023-04-06T16:42:05.295Z,19.60
2023-04-06T16:44:33.296Z,19.70
2023-04-06T16:47:01.357Z,19.60
2023-04-06T16:49:29.588Z,19.60
2023-04-06T16:52:01.926Z,19.60
2023-04-06T16:54:29.856Z,19.60
2023-04-06T16:56:57.840Z,19.50
2023-04-06T16:59:25.741Z,19.50
2023-04-06T17:01:53.642Z,19.50
2023-04-06T17:04:22.314Z,19.50
2023-04-06T17:06:50.200Z,19.40
2023-04-06T17:09:18.041Z,19.30
2023-04-06T17:11:47.145Z,19.30
2023-04-06T17:14:15.254Z,19.30
2023-04-06T17:16:43.152Z,19.20
2023-04-06T17:19:11.182Z,19.20
2023-04-06T17:21:38.987Z,19.10
2023-04-06T17:24:06.973Z,19.10
2023-04-06T17:26:34.927Z,19.10
2023-04-06T17:29:02.867Z,19.10
2023-04-06T17:31:30.810Z,19.10
2023-04-06T17:33:59.971Z,19.20
2023-04-06T17:36:30.279Z,19.30
2023-04-06T17:38:58.144Z,19.50
2023-04-06T17:41:26.676Z,19.50
2023-04-06T17:43:54.552Z,19.60
2023-04-06T17:46:22.591Z,19.70
2023-04-06T17:48:52.056Z,19.70
2023-04-06T17:51:20.845Z,19.90
2023-04-06T17:53:48.789Z,19.90
2023-04-06T17:56:16.794Z,19.90
2023-04-06T17:58:46.561Z,19.90
2023-04-06T18:01:15.375Z,19.90
2023-04-06T18:03:43.318Z,19.90
2023-04-06T18:06:11.724Z,19.90
2023-04-06T18:08:39.999Z,19.90
2023-04-06T18:11:07.952Z,20.00
2023-04-06T18:13:37.170Z,20.00
2023-04-06T18:16:07.380Z,20.00
2023-04-06T18:18:35.681Z,20.00
2023-04-06T18:21:03.907Z,20.00
2023-04-06T18:23:31.838Z,20.00
2023-04-06T18:25:59.728Z,20.00
2023-04-06T18:28:27.846Z,19.90
2023-04-06T18:30:56.132Z,19.90
2023-04-06T18:33:24.114Z,19.90
2023-04-06T18:35:52.109Z,19.90
2023-04-06T18:38:20.244Z,19.80
2023-04-06T18:40:48.580Z,19.70
2023-04-06T18:43:16.842Z,19.70
2023-04-06T18:45:44.891Z,19.60
2023-04-06T18:48:13.877Z,19.60
2023-04-06T18:50:41.768Z,19.60
2023-04-06T18:53:10.064Z,19.50
2023-04-06T18:55:38.430Z,19.40
2023-04-06T18:58:06.704Z,19.40
2023-04-06T19:00:34.748Z,19.30
2023-04-06T19:03:02.858Z,19.20
2023-04-06T19:05:30.946Z,19.20
2023-04-06T19:07:58.938Z,19.10
2023-04-06T19:10:26.873Z,19.10
2023-04-06T19:12:54.802Z,19.00
2023-04-06T19:15:22.735Z,19.00
2023-04-06T19:17:50.943Z,18.90
2023-04-06T19:20:19.004Z,18.90
2023-04-06T19:22:47.118Z,18.80
2023-04-06T19:25:15.103Z,18.80
2023-04-06T19:27:43.360Z,18.70
2023-04-06T19:30:11.397Z,18.70
2023-04-06T19:32:39.925Z,18.70
2023-04-06T19:35:08.158Z,18.70
2023-04-06T19:37:36.263Z,18.60
2023-04-06T19:40:07.674Z,18.60
2023-04-06T19:42:35.721Z,18.60
2023-04-06T19:45:04.026Z,18.50
2023-04-06T19:47:32.066Z,18.50
2023-04-06T19:50:00.138Z,18.50
2023-04-06T19:52:28.983Z,18.50
2023-04-06T19:54:57.637Z,18.40
2023-04-06T19:57:26.060Z,18.40
2023-04-06T19:59:54.255Z,18.30
2023-04-06T20:02:22.279Z,18.30
2023-04-06T20:04:50.624Z,18.30
2023-04-06T20:07:18.548Z,18.30
2023-04-06T20:09:47.102Z,18.20
2023-04-06T20:12:15.150Z,18.30
2023-04-06T20:14:43.174Z,18.20
2023-04-06T20:17:11.771Z,18.20
2023-04-06T20:19:39.732Z,18.20
2023-04-06T20:22:07.605Z,18.20
2023-04-06T20:24:35.570Z,18.20
2023-04-06T20:27:03.570Z,18.20
2023-04-06T20:29:31.870Z,18.10
2023-04-06T20:32:00.007Z,18.10
2023-04-06T20:34:29.129Z,18.10
2023-04-06T20:36:57.242Z,18.10
2023-04-06T20:39:27.361Z,18.10
2023-04-06T20:41:55.434Z,18.10
2023-04-06T20:44:25.244Z,18.10
2023-04-06T20:46:53.273Z,18.00
2023-04-06T20:49:23.741Z,18.00
2023-04-06T20:51:51.673Z,18.00
2023-04-06T20:54:19.911Z,18.00
2023-04-06T20:56:48.140Z,18.00
2023-04-06T20:59:16.231Z,18.00
2023-04-06T21:01:44.206Z,17.90
2023-04-06T21:04:12.367Z,18.00
2023-04-06T21:06:40.355Z,17.90
2023-04-06T21:09:08.265Z,17.90
2023-04-06T21:11:36.102Z,17.90
2023-04-06T21:14:03.956Z,17.90
2023-04-06T21:16:31.934Z,17.90
2023-04-06T21:18:59.823Z,17.90
2023-04-06T21:21:27.694Z,17.90
2023-04-06T21:23:55.562Z,17.80
2023-04-06T21:26:23.435Z,17.80
2023-04-06T21:28:51.469Z,17.80
2023-04-06T21:31:20.075Z,17.80
2023-04-06T21:33:48.092Z,17.80
2023-04-06T21:36:15.943Z,17.80
2023-04-06T21:38:43.852Z,17.80
2023-04-06T21:41:11.936Z,17.80
2023-04-06T21:43:39.990Z,17.80
2023-04-06T21:46:08.383Z,17.80
2023-04-06T21:48:36.383Z,17.80
2023-04-06T21:51:04.497Z,17.70
2023-04-06T21:53:32.505Z,17.70
2023-04-06T21:56:01.257Z,17.70
2023-04-06T21:58:29.178Z,17.70
2023-04-06T22:00:57.153Z,17.70
2023-04-06T22:03:25.225Z,17.70
2023-04-06T22:05:55.851Z,17.70
2023-04-06T22:08:33.868Z,17.70
2023-04-06T22:11:02.209Z,17.70
2023-04-06T22:13:30.087Z,17.70
2023-04-06T22:15:57.981Z,17.70
2023-04-06T22:18:25.862Z,17.70
2023-04-06T22:20:53.756Z,17.70
2023-04-06T22:23:22.093Z,17.70
2023-04-06T22:25:50.040Z,17.60
2023-04-06T22:28:17.872Z,17.60
2023-04-06T22:30:45.678Z,17.60
2023-04-06T22:33:13.822Z,17.60
2023-04-06T22:35:41.749Z,17.60
2023-04-06T22:38:09.586Z,17.60
2023-04-06T22:40:37.458Z,17.60
2023-04-06T22:43:05.430Z,17.60
2023-04-06T22:45:33.291Z,17.60
2023-04-06T22:48:01.200Z,17.60
2023-04-06T22:50:29.198Z,17.60
2023-04-06T22:52:57.046Z,17.60
2023-04-06T22:55:24.898Z,17.60
2023-04-06T22:57:52.773Z,17.50
2023-04-06T23:00:20.746Z,17.50
2023-04-06T23:02:48.839Z,17.50
2023-04-06T23:05:16.960Z,17.50
2023-04-06T23:07:44.803Z,17.50
2023-04-06T23:10:12.683Z,17.50
2023-04-06T23:12:40.589Z,17.50
2023-04-06T23:15:08.520Z,17.50
2023-04-06T23:17:36.373Z,17.50
2023-04-06T23:20:04.216Z,17.50
2023-04-06T23:22:32.158Z,17.50
2023-04-06T23:25:00.120Z,17.50
2023-04-06T23:27:27.952Z,17.40
2023-04-06T23:29:55.830Z,17.40
2023-04-06T23:32:23.835Z,17.40
2023-04-06T23:34:51.774Z,17.40
2023-04-06T23:37:19.710Z,17.40
2023-04-06T23:39:48.476Z,17.40
2023-04-06T23:42:16.342Z,17.40
2023-04-06T23:44:44.231Z,17.40
2023-04-06T23:47:12.097Z,17.40
2023-04-06T23:49:40.067Z,17.40
2023-04-06T23:52:07.961Z,17.30
2023-04-06T23:54:35.836Z,17.30
2023-04-06T23:57:03.827Z,17.30
2023-04-06T23:59:31.655Z,17.30
